createdAt,value
2023-04-21T00:01:30.116Z,94.99
2023-04-21T00:03:57.368Z,95.00
2023-04-21T00:06:24.539Z,94.89
2023-04-21T00:08:51.581Z,94.70
2023-04-21T00:11:19.115Z,94.57
2023-04-21T00:14:18.008Z,94.08
2023-04-21T00:16:45.236Z,94.19
2023-04-21T00:19:14.351Z,94.66
2023-04-21T00:21:41.509Z,94.17
2023-04-21T00:24:08.749Z,94.50
2023-04-21T00:26:35.822Z,94.29
2023-04-21T00:29:03.342Z,93.66
2023-04-21T00:31:31.823Z,92.47
2023-04-21T00:33:58.896Z,93.29
2023-04-21T00:36:28.315Z,93.89
2023-04-21T00:38:55.633Z,94.13
2023-04-21T00:41:23.788Z,94.45
2023-04-21T00:44:07.042Z,94.87
2023-04-21T00:47:06.161Z,94.97
2023-04-21T00:49:33.510Z,94.90
2023-04-21T00:52:00.926Z,94.68
2023-04-21T00:54:28.524Z,94.54
2023-04-21T01:00:46.549Z,93.98
2023-04-21T01:03:13.897Z,94.05
2023-04-21T01:05:42.659Z,93.68
2023-04-21T01:08:12.156Z,93.87
2023-04-21T01:10:39.261Z,94.24
2023-04-21T01:13:06.480Z,94.03
2023-04-21T01:15:34.007Z,93.51
2023-04-21T01:18:01.351Z,93.13
2023-04-21T01:20:29.873Z,93.47
2023-04-21T01:22:58.215Z,93.39
2023-04-21T01:25:28.475Z,94.43
2023-04-21T01:27:56.402Z,94.01
2023-04-21T01:30:23.508Z,94.05
2023-04-21T01:32:52.064Z,93.88
2023-04-21T01:35:19.259Z,93.89
2023-04-21T01:37:46.499Z,93.84
2023-04-21T01:40:14.131Z,93.78
2023-04-21T01:42:43.448Z,94.29
2023-04-21T01:45:11.325Z,94.52
2023-04-21T01:47:38.715Z,94.07
2023-04-21T01:50:08.044Z,94.01
2023-04-21T01:52:35.187Z,94.26
2023-04-21T01:55:02.523Z,94.04
2023-04-21T01:57:29.722Z,94.05
2023-04-21T01:59:57.712Z,93.45
2023-04-21T02:02:25.194Z,93.49
2023-04-21T02:04:52.419Z,93.83
2023-04-21T02:07:19.549Z,94.05
2023-04-21T02:09:46.652Z,94.51
2023-04-21T02:12:15.254Z,94.66
2023-04-21T02:14:42.827Z,94.56
2023-04-21T02:17:09.934Z,94.60
2023-04-21T02:19:37.892Z,94.88
2023-04-21T02:22:07.001Z,94.91
2023-04-21T02:24:36.200Z,94.83
2023-04-21T02:27:03.530Z,95.20
2023-04-21T02:29:30.733Z,95.71
2023-04-21T02:32:07.775Z,95.46
2023-04-21T02:34:45.317Z,95.55
2023-04-21T02:37:12.452Z,95.28
2023-04-21T02:39:39.566Z,95.32
2023-04-21T02:42:06.715Z,95.28
2023-04-21T02:44:49.220Z,95.12
2023-04-21T02:47:17.032Z,94.38
2023-04-21T02:49:44.655Z,94.13
2023-04-21T02:52:12.831Z,93.72
2023-04-21T02:54:39.881Z,93.67
2023-04-21T02:57:07.027Z,93.22
2023-04-21T02:59:34.204Z,92.07
2023-04-21T03:02:01.359Z,91.25
2023-04-21T03:04:28.806Z,90.42
2023-04-21T03:06:58.171Z,89.94
2023-04-21T03:09:25.596Z,90.53
2023-04-21T03:11:53.497Z,92.02
2023-04-21T03:14:20.716Z,92.88
2023-04-21T03:16:47.857Z,93.64
2023-04-21T03:19:14.947Z,94.22
2023-04-21T03:21:41.992Z,94.00
2023-04-21T03:24:09.523Z,93.93
2023-04-21T03:26:38.836Z,93.49
2023-04-21T03:29:05.952Z,93.90
2023-04-21T03:31:33.197Z,93.00
2023-04-21T03:34:00.250Z,93.33
2023-04-21T03:36:27.735Z,93.35
2023-04-21T03:38:55.529Z,92.76
2023-04-21T03:41:23.509Z,92.96
2023-04-21T03:43:53.585Z,92.41
2023-04-21T03:46:22.179Z,91.82
2023-04-21T03:48:49.461Z,91.25
2023-04-21T03:51:16.683Z,90.81
2023-04-21T03:53:44.009Z,90.19
2023-04-21T03:56:11.209Z,89.87
2023-04-21T03:58:38.427Z,89.66
2023-04-21T04:01:07.123Z,88.64
2023-04-21T04:03:34.976Z,87.25
2023-04-21T04:06:04.305Z,85.37
2023-04-21T04:08:31.579Z,84.11
2023-04-21T04:10:58.765Z,87.72
2023-04-21T04:13:26.843Z,88.75
2023-04-21T04:15:54.157Z,88.25
2023-04-21T04:18:21.812Z,88.23
2023-04-21T04:20:48.901Z,89.38
2023-04-21T04:23:16.251Z,89.52
2023-04-21T04:25:43.527Z,89.17
2023-04-21T04:28:10.729Z,88.26
2023-04-21T04:30:37.825Z,88.61
2023-04-21T04:33:05.752Z,87.94
2023-04-21T04:35:32.930Z,87.75
2023-04-21T04:37:59.972Z,87.59
2023-04-21T04:40:27.216Z,86.98
2023-04-21T04:42:55.111Z,87.00
2023-04-21T04:45:22.452Z,85.47
2023-04-21T04:47:52.774Z,85.10
2023-04-21T04:50:20.554Z,85.21
2023-04-21T04:52:49.199Z,84.04
2023-04-21T04:55:16.343Z,83.69
2023-04-21T04:57:43.456Z,82.94
2023-04-21T05:00:11.893Z,82.44
2023-04-21T05:02:39.281Z,82.19
2023-04-21T05:05:07.837Z,83.33
2023-04-21T05:07:35.440Z,84.00
2023-04-21T05:10:04.550Z,84.05
2023-04-21T05:12:34.994Z,82.92
2023-04-21T05:15:02.385Z,82.95
2023-04-21T05:17:31.380Z,84.47
2023-04-21T05:19:58.682Z,84.30
2023-04-21T05:22:26.340Z,83.09
2023-04-21T05:24:53.581Z,82.27
2023-04-21T05:27:20.861Z,81.70
2023-04-21T05:29:48.027Z,80.71
2023-04-21T05:32:15.585Z,78.89
2023-04-21T05:34:42.656Z,78.79
2023-04-21T05:37:12.284Z,78.63
2023-04-21T05:39:39.592Z,78.19
2023-04-21T05:42:06.895Z,77.71
2023-04-21T05:44:34.202Z,77.54
2023-04-21T05:47:01.277Z,76.85
2023-04-21T05:49:28.522Z,78.59
2023-04-21T05:51:55.566Z,75.90
2023-04-21T05:54:22.751Z,75.63
2023-04-21T05:56:49.824Z,75.80
2023-04-21T05:59:17.167Z,78.96
2023-04-21T06:01:44.771Z,76.67
2023-04-21T06:04:12.128Z,80.67
2023-04-21T06:06:39.696Z,81.90
2023-04-21T06:09:08.068Z,83.82
2023-04-21T06:11:35.210Z,86.06
2023-04-21T06:14:02.287Z,88.57
2023-04-21T06:16:32.375Z,90.70
2023-04-21T06:18:59.868Z,93.00
2023-04-21T06:21:27.089Z,94.14
2023-04-21T06:23:54.112Z,94.21
2023-04-21T06:26:21.267Z,94.48
2023-04-21T06:28:48.280Z,93.57
2023-04-21T06:31:15.789Z,92.81
2023-04-21T06:33:43.072Z,93.42
2023-04-21T06:36:10.127Z,92.96
2023-04-21T06:38:37.174Z,92.16
2023-04-21T06:41:04.939Z,91.21
2023-04-21T06:43:32.018Z,92.01
2023-04-21T06:45:59.097Z,91.10
2023-04-21T06:48:26.577Z,91.47
2023-04-21T06:50:53.926Z,91.10
2023-04-21T06:54:30.277Z,90.72
2023-04-21T06:56:57.394Z,91.66
2023-04-21T06:59:24.660Z,92.30
2023-04-21T07:01:55.055Z,92.73
2023-04-21T07:04:22.286Z,92.07
2023-04-21T07:06:49.429Z,92.99
2023-04-21T07:09:16.555Z,93.71
2023-04-21T07:11:43.599Z,92.69
2023-04-21T07:14:11.174Z,92.02
2023-04-21T07:16:38.350Z,92.61
2023-04-21T07:19:05.516Z,92.08
2023-04-21T07:21:36.318Z,91.97
2023-04-21T07:24:04.015Z,92.23
2023-04-21T07:26:31.122Z,91.62
2023-04-21T07:29:00.727Z,91.30
2023-04-21T07:31:27.828Z,91.45
2023-04-21T07:33:54.940Z,90.21
2023-04-21T07:36:22.039Z,88.90
2023-04-21T07:38:49.039Z,88.67
2023-04-21T07:41:16.088Z,88.37
2023-04-21T07:43:43.104Z,86.67
2023-04-21T07:46:10.214Z,84.27
2023-04-21T07:48:37.272Z,85.20
2023-04-21T07:51:04.310Z,82.60
2023-04-21T07:53:31.573Z,81.97
2023-04-21T07:55:59.137Z,81.98
2023-04-21T07:58:26.265Z,82.54
2023-04-21T08:00:53.426Z,78.50
2023-04-21T08:03:23.819Z,78.20
2023-04-21T08:05:51.630Z,76.94
2023-04-21T08:08:20.600Z,75.87
2023-04-21T08:10:47.989Z,76.04
2023-04-21T08:13:15.203Z,73.74
2023-04-21T08:15:42.422Z,78.80
2023-04-21T08:18:09.782Z,74.84
2023-04-21T08:20:36.996Z,76.65
2023-04-21T08:23:04.196Z,75.19
2023-04-21T08:25:31.473Z,74.19
2023-04-21T08:27:58.621Z,73.54
2023-04-21T08:30:27.484Z,74.80
2023-04-21T08:32:54.545Z,74.61
2023-04-21T08:35:21.692Z,74.63
2023-04-21T08:37:49.085Z,74.41
2023-04-21T08:40:18.316Z,74.34
2023-04-21T08:42:46.068Z,74.50
2023-04-21T08:45:13.128Z,74.24
2023-04-21T08:47:42.072Z,74.31
2023-04-21T08:50:13.775Z,73.90
2023-04-21T08:52:41.063Z,73.67
2023-04-21T08:55:10.235Z,72.75
2023-04-21T08:57:37.393Z,74.47
2023-04-21T09:00:07.883Z,72.21
2023-04-21T09:03:04.328Z,68.83
2023-04-21T09:05:36.391Z,69.65
2023-04-21T09:08:16.792Z,68.01
2023-04-21T09:10:49.539Z,69.48
2023-04-21T09:13:18.385Z,68.52
2023-04-21T09:15:47.518Z,66.35
2023-04-21T09:18:16.652Z,66.21
2023-04-21T09:20:45.532Z,67.95
2023-04-21T09:23:13.256Z,65.52
2023-04-21T09:25:45.628Z,65.88
2023-04-21T09:28:14.986Z,64.39
2023-04-21T09:30:43.136Z,65.45
2023-04-21T09:33:28.029Z,64.25
2023-04-21T09:35:56.402Z,63.79
2023-04-21T09:38:26.301Z,60.42
2023-04-21T09:41:00.252Z,63.45
2023-04-21T09:43:27.358Z,64.77
2023-04-21T10:17:51.877Z,66.90
2023-04-21T10:20:18.920Z,65.05
2023-04-21T10:22:46.142Z,64.28
2023-04-21T10:25:14.469Z,63.79
2023-04-21T10:27:43.229Z,62.68
2023-04-21T10:30:20.644Z,63.01
2023-04-21T10:32:47.866Z,61.65
2023-04-21T10:35:21.708Z,60.09
2023-04-21T10:37:51.696Z,61.18
2023-04-21T10:40:43.237Z,60.09
2023-04-21T10:43:43.491Z,61.55
2023-04-21T10:46:34.081Z,59.67
2023-04-21T10:49:21.608Z,62.47
2023-04-21T10:52:02.655Z,61.15
2023-04-21T10:55:06.741Z,60.68
2023-04-21T10:57:35.662Z,61.13
2023-04-21T11:00:07.074Z,62.22
2023-04-21T11:02:38.658Z,62.16
2023-04-21T11:05:09.600Z,63.32
2023-04-21T11:07:37.151Z,63.15
2023-04-21T11:10:08.254Z,61.46
2023-04-21T11:12:39.112Z,61.65
2023-04-21T11:15:09.069Z,61.63
2023-04-21T11:17:39.398Z,58.31
2023-04-21T11:20:07.325Z,58.43
2023-04-21T11:22:36.437Z,57.90
2023-04-21T11:25:04.661Z,59.33
2023-04-21T11:27:31.870Z,57.78
2023-04-21T11:29:59.054Z,59.32
2023-04-21T11:32:26.215Z,62.02
2023-04-21T11:34:54.506Z,56.53
2023-04-21T11:37:30.071Z,56.91
2023-04-21T11:40:01.424Z,56.48
2023-04-21T11:42:29.167Z,58.81
2023-04-21T11:44:57.374Z,57.80
2023-04-21T11:47:26.831Z,56.66
2023-04-21T11:49:59.075Z,60.09
2023-04-21T11:52:34.535Z,57.78
2023-04-21T11:55:11.898Z,56.98
2023-04-21T11:57:40.766Z,56.98
2023-04-21T12:00:15.455Z,55.11
2023-04-21T12:02:43.942Z,54.70
2023-04-21T12:05:13.286Z,56.11
2023-04-21T12:07:52.071Z,55.90
2023-04-21T12:10:21.013Z,55.13
2023-04-21T12:12:48.502Z,55.16
2023-04-21T12:15:20.540Z,55.35
2023-04-21T12:17:49.731Z,55.72
2023-04-21T12:20:18.761Z,56.58
2023-04-21T12:22:46.879Z,56.30
2023-04-21T12:25:14.298Z,56.66
2023-04-21T12:27:52.263Z,55.31
2023-04-21T12:30:20.931Z,55.45
2023-04-21T12:32:48.474Z,55.34
2023-04-21T12:35:16.251Z,54.72
2023-04-21T12:37:44.861Z,54.85
2023-04-21T12:40:12.230Z,54.33
2023-04-21T12:42:39.300Z,52.52
2023-04-21T12:45:07.029Z,54.52
2023-04-21T12:47:35.382Z,54.53
2023-04-21T12:50:02.657Z,54.56
2023-04-21T12:52:29.701Z,55.12
2023-04-21T12:54:56.708Z,55.80
2023-04-21T12:57:23.796Z,55.48
2023-04-21T12:59:50.963Z,54.38
2023-04-21T13:02:18.132Z,55.14
2023-04-21T13:04:45.315Z,54.65
2023-04-21T13:07:12.645Z,55.59
2023-04-21T13:09:39.724Z,54.26
2023-04-21T13:12:06.826Z,53.69
2023-04-21T13:14:34.108Z,53.89
2023-04-21T13:17:01.322Z,54.66
2023-04-21T13:19:30.078Z,54.20
2023-04-21T13:21:57.459Z,54.54
2023-04-21T13:24:26.143Z,55.10
2023-04-21T13:26:53.323Z,54.93
2023-04-21T13:29:20.800Z,54.97
2023-04-21T13:31:47.942Z,55.36
2023-04-21T13:34:15.128Z,55.14
2023-04-21T13:36:42.592Z,55.88
2023-04-21T13:39:10.374Z,56.81
2023-04-21T13:41:37.926Z,56.44
2023-04-21T13:44:05.408Z,56.59
2023-04-21T13:46:32.693Z,55.74
2023-04-21T13:48:59.780Z,55.89
2023-04-21T13:51:26.917Z,56.94
2023-04-21T13:53:54.136Z,56.62
2023-04-21T13:56:21.793Z,56.48
2023-04-21T13:58:48.989Z,56.32
2023-04-21T14:01:17.194Z,56.99
2023-04-21T14:03:45.336Z,54.79
2023-04-21T14:06:12.633Z,54.06
2023-04-21T14:08:39.847Z,54.25
2023-04-21T14:11:07.008Z,54.02
2023-04-21T14:13:41.883Z,53.71
2023-04-21T14:16:15.307Z,54.57
2023-04-21T14:18:45.356Z,56.09
2023-04-21T14:21:12.523Z,53.78
2023-04-21T14:23:39.770Z,53.95
2023-04-21T14:26:06.995Z,54.62
2023-04-21T14:28:34.304Z,54.04
2023-04-21T14:31:02.095Z,53.90
2023-04-21T14:33:29.872Z,54.47
2023-04-21T14:35:57.097Z,54.88
2023-04-21T14:38:24.700Z,53.32
2023-04-21T14:40:54.662Z,54.77
2023-04-21T14:43:22.406Z,53.66
2023-04-21T14:45:49.752Z,54.11
2023-04-21T14:48:17.403Z,54.84
2023-04-21T14:51:16.215Z,54.56
2023-04-21T14:53:43.426Z,54.22
2023-04-21T14:56:10.537Z,54.10
2023-04-21T14:58:37.642Z,55.15
2023-04-21T15:01:05.288Z,55.23
2023-04-21T15:03:32.532Z,54.90
2023-04-21T15:05:59.797Z,56.11
2023-04-21T15:08:27.810Z,56.45
2023-04-21T15:10:54.961Z,56.44
2023-04-21T15:13:22.160Z,56.20
2023-04-21T15:15:51.674Z,57.70
2023-04-21T15:18:18.815Z,57.11
2023-04-21T15:20:46.124Z,57.11
2023-04-21T15:23:13.594Z,57.52
2023-04-21T15:25:41.164Z,57.12
2023-04-21T15:28:08.820Z,57.58
2023-04-21T15:30:36.048Z,57.39
2023-04-21T15:33:03.190Z,58.04
2023-04-21T15:35:30.454Z,58.14
2023-04-21T15:37:57.660Z,58.14
2023-04-21T15:40:24.803Z,58.30
2023-04-21T15:42:52.116Z,59.11
2023-04-21T15:45:19.226Z,59.09
2023-04-21T15:47:46.285Z,59.38
2023-04-21T15:50:13.400Z,59.62
2023-04-21T15:52:43.445Z,60.21
2023-04-21T15:55:12.276Z,60.93
2023-04-21T15:57:39.423Z,59.40
2023-04-21T16:00:10.473Z,58.32
2023-04-21T16:02:38.086Z,60.37
2023-04-21T16:05:06.012Z,60.85
2023-04-21T16:07:33.336Z,60.38
2023-04-21T16:10:00.572Z,60.41
2023-04-21T16:12:27.656Z,60.90
2023-04-21T16:14:59.430Z,59.34
2023-04-21T16:17:32.114Z,60.83
2023-04-21T16:19:59.331Z,61.28
2023-04-21T16:22:26.574Z,61.42
2023-04-21T16:24:53.661Z,61.54
2023-04-21T16:27:21.045Z,61.50
2023-04-21T16:29:49.195Z,61.49
2023-04-21T16:32:16.379Z,62.28
2023-04-21T16:34:43.446Z,62.20
2023-04-21T16:37:10.784Z,62.21
2023-04-21T16:39:37.789Z,62.84
2023-04-21T16:42:04.888Z,62.77
2023-04-21T16:44:32.156Z,62.42
2023-04-21T16:46:59.289Z,63.16
2023-04-21T16:49:26.434Z,63.40
2023-04-21T16:51:53.460Z,64.18
2023-04-21T16:54:20.745Z,64.25
2023-04-21T16:56:47.830Z,64.13
2023-04-21T16:59:14.876Z,64.59
2023-04-21T17:01:42.106Z,65.57
2023-04-21T17:04:14.127Z,65.98
2023-04-21T17:06:41.613Z,66.63
2023-04-21T17:09:08.871Z,66.81
2023-04-21T17:11:38.085Z,66.44
2023-04-21T17:14:06.631Z,68.10
2023-04-21T17:16:34.922Z,68.58
2023-04-21T17:19:02.624Z,68.94
2023-04-21T17:21:29.734Z,70.36
2023-04-21T17:23:56.875Z,70.54
2023-04-21T17:26:24.193Z,70.47
2023-04-21T17:28:51.635Z,69.93
2023-04-21T17:31:18.966Z,70.80
2023-04-21T17:33:46.049Z,71.25
2023-04-21T17:36:13.447Z,71.50
2023-04-21T17:38:42.928Z,71.99
2023-04-21T17:41:10.391Z,71.77
2023-04-21T17:43:37.428Z,71.85
2023-04-21T17:46:06.087Z,71.82
2023-04-21T17:48:33.502Z,72.17
2023-04-21T17:51:00.613Z,72.46
2023-04-21T17:53:27.841Z,72.26
2023-04-21T17:55:55.021Z,72.62
2023-04-21T17:58:22.335Z,72.77
2023-04-21T18:00:49.659Z,73.84
2023-04-21T18:03:17.061Z,74.00
2023-04-21T18:05:44.740Z,74.11
2023-04-21T18:08:12.079Z,73.79
2023-04-21T18:10:39.264Z,73.96
2023-04-21T18:13:06.802Z,73.41
2023-04-21T18:15:33.843Z,73.20
2023-04-21T18:18:00.953Z,73.46
2023-04-21T18:20:28.167Z,73.46
2023-04-21T18:22:55.352Z,73.82
2023-04-21T18:25:38.289Z,73.54
2023-04-21T18:28:08.348Z,75.52
2023-04-21T18:30:35.421Z,77.03
2023-04-21T18:33:02.734Z,77.99
2023-04-21T18:35:32.021Z,78.81
2023-04-21T18:37:59.177Z,79.66
2023-04-21T18:44:16.905Z,80.62
2023-04-21T18:46:43.961Z,80.94
2023-04-21T18:49:11.018Z,80.53
2023-04-21T18:51:38.110Z,80.63
2023-04-21T18:54:05.481Z,80.29
2023-04-21T18:56:32.878Z,80.32
2023-04-21T18:59:00.029Z,80.03
2023-04-21T19:01:27.875Z,79.49
2023-04-21T19:03:55.445Z,79.73
2023-04-21T19:06:22.696Z,79.67
2023-04-21T19:08:51.329Z,79.56
2023-04-21T19:11:18.446Z,80.83
2023-04-21T19:13:45.598Z,80.82
2023-04-21T19:16:12.890Z,80.67
2023-04-21T19:18:40.223Z,80.79
2023-04-21T19:21:10.426Z,81.04
2023-04-21T19:23:37.453Z,80.79
2023-04-21T19:26:05.282Z,80.36
2023-04-21T19:28:32.672Z,79.69
2023-04-21T19:30:59.665Z,78.74
2023-04-21T19:33:26.646Z,78.94
2023-04-21T19:35:53.870Z,78.78
2023-04-21T19:38:21.102Z,78.71
2023-04-21T19:40:48.115Z,77.57
2023-04-21T19:43:15.383Z,77.52
2023-04-21T19:45:42.632Z,78.47
2023-04-21T19:48:09.684Z,76.76
2023-04-21T19:50:37.505Z,76.38
2023-04-21T19:53:04.629Z,76.61
2023-04-21T19:55:32.094Z,76.06
2023-04-21T19:57:59.043Z,74.75
2023-04-21T20:04:17.002Z,75.48
2023-04-21T20:06:44.591Z,74.80
2023-04-21T20:09:11.820Z,74.23
2023-04-21T20:11:38.863Z,73.37
2023-04-21T20:14:05.826Z,74.27
2023-04-21T20:16:33.112Z,75.48
2023-04-21T20:19:00.517Z,76.80
2023-04-21T20:21:27.558Z,78.21
2023-04-21T20:23:54.611Z,76.32
2023-04-21T20:26:22.645Z,75.95
2023-04-21T20:28:49.739Z,76.61
2023-04-21T20:31:19.147Z,78.09
2023-04-21T20:33:46.359Z,79.57
2023-04-21T20:36:13.363Z,81.42
2023-04-21T20:38:40.367Z,81.46
2023-04-21T20:41:08.946Z,81.02
2023-04-21T20:43:35.974Z,81.56
2023-04-21T20:46:03.505Z,79.98
2023-04-21T20:48:30.735Z,80.37
2023-04-21T20:50:58.074Z,78.57
2023-04-21T20:54:35.265Z,77.66
2023-04-21T20:57:02.688Z,77.11
2023-04-21T20:59:29.793Z,77.78
2023-04-21T21:01:56.887Z,77.74
2023-04-21T21:04:24.114Z,77.97
2023-04-21T21:06:51.342Z,76.94
2023-04-21T21:09:19.176Z,74.16
2023-04-21T21:11:46.645Z,72.08
2023-04-21T21:14:13.983Z,70.18
2023-04-21T21:16:41.117Z,69.60
2023-04-21T21:19:08.317Z,68.51
2023-04-21T21:21:35.390Z,69.14
2023-04-21T21:24:02.574Z,71.02
2023-04-21T21:26:29.754Z,73.46
2023-04-21T21:30:06.068Z,75.52
2023-04-21T21:32:33.091Z,78.02
2023-04-21T21:35:00.298Z,78.71
2023-04-21T21:37:27.372Z,79.77
2023-04-21T21:40:02.760Z,79.50
2023-04-21T21:42:29.802Z,77.04
2023-04-21T21:44:56.812Z,75.60
2023-04-21T21:47:23.927Z,75.99
2023-04-21T21:49:54.996Z,77.08
2023-04-21T21:52:22.350Z,75.34
2023-04-21T21:54:49.363Z,73.22
2023-04-21T21:57:16.970Z,71.73
2023-04-21T21:59:44.502Z,71.70
2023-04-21T22:02:11.477Z,74.61
2023-04-21T22:04:38.623Z,75.00
2023-04-21T22:07:05.656Z,76.94
2023-04-21T22:09:32.961Z,76.89
2023-04-21T22:11:59.992Z,76.58
2023-04-21T22:14:27.265Z,74.11
2023-04-21T22:16:54.259Z,72.63
2023-04-21T22:19:21.304Z,72.34
2023-04-21T22:21:48.581Z,71.20
2023-04-21T22:24:15.683Z,70.07
2023-04-21T22:26:44.100Z,68.44
2023-04-21T22:29:11.166Z,68.95
2023-04-21T22:31:38.366Z,68.36
2023-04-21T22:34:05.560Z,68.78
2023-04-21T22:36:32.782Z,68.66
2023-04-21T22:38:59.832Z,68.58
2023-04-21T22:41:27.738Z,68.82
2023-04-21T22:43:54.856Z,68.73
2023-04-21T22:46:21.883Z,69.14
2023-04-21T22:48:51.286Z,68.95
2023-04-21T22:51:21.614Z,68.29
2023-04-21T22:53:48.676Z,68.36
2023-04-21T22:56:16.127Z,69.78
2023-04-21T22:58:43.597Z,73.87
2023-04-21T23:01:10.683Z,71.90
2023-04-21T23:03:37.873Z,71.59
2023-04-21T23:06:05.134Z,72.47
2023-04-21T23:08:32.162Z,73.94
2023-04-21T23:10:59.482Z,73.31
2023-04-21T23:13:26.574Z,73.04
2023-04-21T23:15:53.542Z,73.13
2023-04-21T23:18:20.625Z,72.02
2023-04-21T23:20:47.588Z,71.75
2023-04-21T23:23:14.900Z,71.78
2023-04-21T23:25:42.004Z,71.46
2023-04-21T23:28:09.077Z,71.55
2023-04-21T23:30:36.088Z,71.48
2023-04-21T23:33:03.475Z,71.73
2023-04-21T23:35:30.690Z,71.74
2023-04-21T23:37:57.732Z,71.89
2023-04-21T23:40:24.787Z,71.12
2023-04-21T23:42:51.849Z,71.13
2023-04-21T23:45:19.043Z,70.47
2023-04-21T23:47:46.263Z,71.65
2023-04-21T23:50:13.316Z,72.69
2023-04-21T23:52:42.331Z,75.25
2023-04-21T23:55:12.382Z,76.81
2023-04-21T23:57:39.435Z,75.97
